EDDB Airport Information

Runway Information
Runway 07L Length 11811 ft width 148 ft
Elevation 144 ft Threshold ft Heading 69
Runway 25R Length 11811 ft Width 148 ft
Elevation 154 ft Threshold ft Heading 249
Runway 07R Length 13123 ft width 197 ft
Elevation 152 ft Threshold ft Heading 69
Runway 25L Length 13123 ft Width 197 ft
Elevation 149 ft Threshold ft Heading 249
Airport Frequencies
Type AFIS Name BERLIN INF Frequency 132.65 MHZ
Type APP Name BERLIN ARR Frequency 119.625 MHZ
Type ATIS Name ATIS Frequency 124.95 MHZ
Type DEP Name BERLIN DEP Frequency 120.625 MHZ
Type DIR Name BERLIN DIR Frequency 136.1 MHZ
Type GND Name GND Frequency 121.6 MHZ
Type INFO Name INFO Frequency 122.7 MHZ
Type TWR Name TWR Frequency 120.025 MHZ
Airport Navaids
Airport Weather Information & NOTAM
ADDS - METARS form results

(1105 UTC 30 June 2022)
Data provider http://aviationweather.gov/metar/data/
 
METAR text: EDDB 301050Z VRB02KT 9999 BKN021 23/17 Q1013 NOSIG
Conditions at: EDDB (BERLIN/BRANDERNB, DE) observed 1050 UTC 30 June 2022
Temperature: 23.0°C (73°F)
Dewpoint: 17.0°C (63°F) [RH = 69%]
Pressure (altimeter): 29.91 inches Hg (1013.0 mb)
Winds: variable direction winds at 2 MPH (2 knots; 1.0 m/s)
Visibility: 6 or more miles (10+ km)
Ceiling: 2100 feet AGL
Clouds: broken clouds at 2100 feet AGL
Weather: no significant weather observed at this time

METAR text: EDDB 301020Z 10004KT 030V170 9999 BKN020 23/17 Q1013 NOSIG
Conditions at: EDDB (BERLIN/BRANDERNB, DE) observed 1020 UTC 30 June 2022
Temperature: 23.0°C (73°F)
Dewpoint: 17.0°C (63°F) [RH = 69%]
Pressure (altimeter): 29.91 inches Hg (1013.0 mb)
Winds: from the E (100 degrees) at 5 MPH (4 knots; 2.1 m/s)
Visibility: 6 or more miles (10+ km)
Ceiling: 2000 feet AGL
Clouds: broken clouds at 2000 feet AGL
Weather: no significant weather observed at this time

Forecast for: EDDB (BERLIN/BRANDERNB, DE)
Text: TAF EDDB 300500Z 3006/0106 07005KT 9999 BKN025
Forecast period: 0600 UTC 30 June 2022 to 0600 UTC 01 July 2022
Forecast type: FROM: standard forecast or significant change
Winds: from the ENE (70 degrees) at 6 MPH (5 knots; 2.6 m/s)
Visibility: 6 or more miles (10+ km)
Ceiling: 2500 feet AGL
Clouds: broken clouds at 2500 feet AGL
Weather: no significant weather forecast for this period
Text: TEMPO 3006/3009 BKN012
Forecast period: 0600 to 0900 UTC 30 June 2022
Forecast type: TEMPORARY: The following changes expected for less than half the time period
Visibility: missing
Ceiling: 1200 feet AGL
Clouds: broken clouds at 1200 feet AGL
Weather: no significant weather forecast for this period
Text: PROB30
Forecast period: 0600 to 0800 UTC 30 June 2022
Forecast type: TEMPORARY: The following changes expected for less than half the time period
Visibility: missing
Ceiling: 900 feet AGL
Clouds: broken clouds at 900 feet AGL
Weather: no significant weather forecast for this period